Time;durP1;ratioP1;P1;durP2;ratioP2;P2;SDS_P1;SDS_P2;PMS_P1;PMS_P2;Temp;Humidity;BMP_temperature;BMP_pressure;BME280_temperature;BME280_humidity;BME280_pressure;Samples;Min_cycle;Max_cycle;Signal;HPM_P1;HPM_P2
2022/06/17 00:00:54;;;;;;;17.73;14.30;;;15.00;99.90;;;;;;5020144;28;20650;-60
2022/06/17 00:03:22;;;;;;;19.30;14.68;;;15.00;99.90;;;;;;5020269;28;20125;-59
2022/06/17 00:05:49;;;;;;;17.67;15.00;;;15.10;99.90;;;;;;5020872;28;20053;-60
2022/06/17 00:08:28;;;;;;;19.27;14.48;;;15.10;99.90;;;;;;5019617;28;20112;-62
2022/06/17 00:10:54;;;;;;;21.20;16.20;;;15.10;99.90;;;;;;5020875;28;20084;-59
2022/06/17 00:13:20;;;;;;;20.63;16.35;;;15.10;99.90;;;;;;5019610;28;20045;-59
2022/06/17 00:15:47;;;;;;;19.55;16.63;;;15.10;99.90;;;;;;5018915;28;20061;-59
2022/06/17 00:18:13;;;;;;;21.52;17.45;;;15.10;99.90;;;;;;5020425;28;20046;-60
2022/06/17 00:20:40;;;;;;;21.13;17.55;;;15.10;99.90;;;;;;5019936;28;20498;-59
2022/06/17 00:23:17;;;;;;;20.77;17.55;;;15.10;99.90;;;;;;5036438;28;20542;-60
2022/06/17 00:25:45;;;;;;;20.52;17.20;;;15.10;99.90;;;;;;5038940;28;20041;-58
2022/06/17 00:28:20;;;;;;;20.63;16.38;;;15.10;99.90;;;;;;5040602;28;20045;-59
2022/06/17 00:30:47;;;;;;;21.45;16.50;;;15.10;99.90;;;;;;5039681;28;20034;-59
2022/06/17 00:33:14;;;;;;;17.95;15.40;;;15.10;99.90;;;;;;5039888;28;20668;-59
2022/06/17 00:35:47;;;;;;;22.65;16.25;;;15.00;99.90;;;;;;5040216;28;20050;-59
2022/06/17 00:38:19;;;;;;;21.63;16.13;;;15.10;99.90;;;;;;5039061;28;20049;-59
2022/06/17 00:40:46;;;;;;;17.75;15.15;;;15.10;99.90;;;;;;5040561;28;20156;-60
2022/06/17 00:43:20;;;;;;;19.23;16.33;;;15.10;99.90;;;;;;5037669;28;20045;-59
2022/06/17 00:46:05;;;;;;;20.25;16.15;;;15.10;99.90;;;;;;5039713;28;20507;-59
2022/06/17 00:48:39;;;;;;;18.30;15.65;;;15.10;99.90;;;;;;5040023;28;20091;-59
2022/06/17 00:51:14;;;;;;;17.05;14.15;;;15.10;99.90;;;;;;5039038;28;20520;-59
2022/06/17 00:53:53;;;;;;;19.63;15.80;;;15.10;99.90;;;;;;5040244;28;20045;-59
2022/06/17 00:56:23;;;;;;;19.27;16.08;;;15.10;99.90;;;;;;5039284;28;20606;-59
2022/06/17 00:59:05;;;;;;;19.75;15.52;;;15.10;99.90;;;;;;5039613;28;20058;-60
2022/06/17 01:01:53;;;;;;;19.58;15.60;;;15.10;99.90;;;;;;5039698;28;20057;-60
2022/06/17 01:04:21;;;;;;;17.92;15.32;;;15.10;99.90;;;;;;5038529;28;20061;-60
2022/06/17 01:06:55;;;;;;;20.88;15.27;;;15.10;99.90;;;;;;5040217;28;20045;-60
2022/06/17 01:12:21;;;;;;;19.27;16.27;;;15.00;99.90;;;;;;5038952;28;20060;-58
2022/06/17 01:14:47;;;;;;;21.65;15.55;;;15.00;99.90;;;;;;5039902;28;20072;-59
2022/06/17 01:17:16;;;;;;;17.88;14.65;;;15.00;99.90;;;;;;5038381;28;20041;-59
2022/06/17 01:19:49;;;;;;;21.77;16.88;;;14.90;99.90;;;;;;5040122;28;20048;-58
2022/06/17 01:22:27;;;;;;;19.67;15.80;;;15.00;99.90;;;;;;5030005;28;20077;-59
2022/06/17 01:25:01;;;;;;;18.35;15.68;;;14.90;99.90;;;;;;5019333;28;20083;-59
2022/06/17 01:27:31;;;;;;;18.95;15.18;;;14.90;99.90;;;;;;5020270;28;20046;-59
2022/06/17 01:29:57;;;;;;;19.05;15.55;;;14.90;99.90;;;;;;5019759;28;20044;-60
2022/06/17 01:32:29;;;;;;;21.50;15.52;;;14.90;99.90;;;;;;5023763;28;20038;-60
2022/06/17 01:34:55;;;;;;;16.77;14.95;;;14.90;99.90;;;;;;5022566;28;20054;-60
2022/06/17 01:37:21;;;;;;;20.35;15.73;;;14.90;99.90;;;;;;5023200;28;20042;-59
2022/06/17 01:39:47;;;;;;;17.83;14.50;;;14.90;99.90;;;;;;5023361;28;20479;-59
2022/06/17 01:42:13;;;;;;;18.02;14.25;;;15.00;99.90;;;;;;5022347;28;20081;-60
2022/06/17 01:44:41;;;;;;;17.55;14.60;;;14.90;99.90;;;;;;5023155;28;20042;-60
2022/06/17 01:47:11;;;;;;;19.77;15.60;;;14.90;99.90;;;;;;5021929;28;20101;-60
2022/06/17 01:49:49;;;;;;;18.02;14.25;;;14.90;99.90;;;;;;5023558;28;20042;-59
2022/06/17 01:52:23;;;;;;;16.73;14.05;;;14.90;99.90;;;;;;5022645;28;20101;-59
2022/06/17 01:54:52;;;;;;;16.85;14.35;;;14.90;99.90;;;;;;5022189;28;20077;-57
2022/06/17 01:57:28;;;;;;;18.42;15.13;;;14.90;99.90;;;;;;5023201;28;20200;-59
2022/06/17 02:00:00;;;;;;;19.05;14.77;;;14.80;99.90;;;;;;5021706;28;20710;-58
2022/06/17 02:02:27;;;;;;;16.85;14.85;;;14.70;99.90;;;;;;5023010;28;20068;-59
2022/06/17 02:04:57;;;;;;;17.02;13.77;;;14.70;99.90;;;;;;5022150;28;20042;-58
2022/06/17 02:07:34;;;;;;;19.30;14.15;;;14.70;99.90;;;;;;5022510;28;20046;-59
2022/06/17 02:10:00;;;;;;;16.77;13.82;;;14.80;99.90;;;;;;5022988;28;20080;-59
2022/06/17 02:12:27;;;;;;;19.67;14.40;;;14.80;99.90;;;;;;5021822;28;20042;-59
2022/06/17 02:14:54;;;;;;;22.13;15.23;;;14.70;99.90;;;;;;5022889;28;20041;-59
2022/06/17 02:17:25;;;;;;;17.75;13.75;;;14.70;99.90;;;;;;5021353;28;20057;-58
2022/06/17 02:19:51;;;;;;;17.70;14.60;;;14.70;99.90;;;;;;5022607;28;20054;-59
2022/06/17 02:22:25;;;;;;;17.83;13.90;;;14.70;99.90;;;;;;5031072;28;20048;-59
2022/06/17 02:24:55;;;;;;;19.17;14.77;;;14.70;99.90;;;;;;5041483;28;20667;-59
2022/06/17 02:27:21;;;;;;;17.67;13.75;;;14.60;99.90;;;;;;5042479;28;20045;-59
2022/06/17 02:29:49;;;;;;;14.57;12.10;;;14.60;99.90;;;;;;5040938;28;20524;-59
2022/06/17 02:32:16;;;;;;;16.60;12.73;;;14.60;99.90;;;;;;5042454;28;20348;-58
2022/06/17 02:35:07;;;;;;;16.42;12.68;;;14.70;99.90;;;;;;5041160;28;20041;-59
2022/06/17 02:37:33;;;;;;;15.55;12.80;;;14.60;99.90;;;;;;5041612;28;20045;-58
2022/06/17 02:40:03;;;;;;;16.15;12.40;;;14.60;99.90;;;;;;5042045;28;20045;-59
2022/06/17 02:42:35;;;;;;;15.43;13.10;;;14.70;99.90;;;;;;5040889;28;20112;-59
2022/06/17 02:45:07;;;;;;;15.32;11.65;;;14.60;99.90;;;;;;5040680;28;20053;-59
2022/06/17 02:47:33;;;;;;;17.05;12.40;;;14.60;99.90;;;;;;5041071;28;20042;-58
2022/06/17 02:49:59;;;;;;;15.18;11.15;;;14.60;99.90;;;;;;5041803;28;20044;-59
2022/06/17 02:52:37;;;;;;;14.65;11.77;;;14.60;99.90;;;;;;5041578;28;20042;-59
2022/06/17 02:55:18;;;;;;;13.85;12.35;;;14.60;99.90;;;;;;5040856;28;20056;-59
2022/06/17 02:57:47;;;;;;;17.80;11.90;;;14.50;99.90;;;;;;5042220;28;20042;-59
2022/06/17 03:00:19;;;;;;;15.93;12.23;;;14.50;99.90;;;;;;5039008;28;20045;-58
2022/06/17 03:02:53;;;;;;;16.13;11.38;;;14.60;99.90;;;;;;5041588;28;20114;-59
2022/06/17 03:05:28;;;;;;;15.85;11.25;;;14.60;99.90;;;;;;5041499;28;20084;-58
2022/06/17 03:07:56;;;;;;;14.35;10.45;;;14.60;99.90;;;;;;5040651;28;20048;-59
2022/06/17 03:10:35;;;;;;;15.35;10.40;;;14.70;99.90;;;;;;5041766;28;20049;-59
2022/06/17 03:13:05;;;;;;;14.90;10.70;;;14.70;99.90;;;;;;5040277;28;20046;-59
2022/06/17 03:15:31;;;;;;;13.38;10.60;;;14.70;99.90;;;;;;5041069;28;20045;-59
2022/06/17 03:17:57;;;;;;;16.38;11.00;;;14.70;99.90;;;;;;5040863;28;20447;-59
2022/06/17 03:20:26;;;;;;;13.75;10.05;;;14.80;99.90;;;;;;5040617;28;20045;-59
2022/06/17 03:23:12;;;;;;;14.93;10.20;;;14.70;99.90;;;;;;5027000;28;20049;-62
2022/06/17 03:25:47;;;;;;;15.60;10.05;;;14.70;99.90;;;;;;5020099;28;20100;-59
2022/06/17 03:28:18;;;;;;;13.52;9.35;;;14.80;99.90;;;;;;5020521;28;20506;-59
2022/06/17 03:31:07;;;;;;;13.63;10.07;;;14.90;99.90;;;;;;5020367;28;20033;-59
2022/06/17 03:33:40;;;;;;;12.60;9.82;;;14.90;99.90;;;;;;5020337;28;20049;-59
2022/06/17 03:36:30;;;;;;;13.43;10.55;;;14.90;99.90;;;;;;5021480;28;20097;-59
2022/06/17 03:38:58;;;;;;;14.52;10.00;;;14.80;99.90;;;;;;5020311;28;20065;-59
2022/06/17 03:41:48;;;;;;;14.45;9.85;;;14.80;99.90;;;;;;5020869;28;20048;-59
2022/06/17 03:44:17;;;;;;;14.80;10.23;;;14.90;99.90;;;;;;5020914;28;20053;-59
2022/06/17 03:47:05;;;;;;;15.27;10.10;;;14.90;99.90;;;;;;5019992;28;20056;-59
2022/06/17 03:49:40;;;;;;;14.50;10.25;;;14.80;99.90;;;;;;5019983;28;20081;-59
2022/06/17 03:52:45;;;;;;;15.52;10.57;;;14.80;99.90;;;;;;5020080;28;20038;-59
2022/06/17 03:55:17;;;;;;;13.20;10.32;;;14.80;99.90;;;;;;4986420;28;20054;-59
2022/06/17 03:57:49;;;;;;;14.65;10.00;;;14.90;99.90;;;;;;5021292;28;20436;-59
2022/06/17 04:00:45;;;;;;;13.10;10.38;;;14.90;99.90;;;;;;5019738;28;20109;-59
2022/06/17 04:03:16;;;;;;;15.10;10.05;;;15.00;99.90;;;;;;5017045;28;20093;-59
2022/06/17 04:05:43;;;;;;;13.20;9.13;;;14.90;99.90;;;;;;5020870;28;20037;-59
2022/06/17 04:08:10;;;;;;;14.23;10.25;;;15.10;99.90;;;;;;5019535;28;20053;-59
2022/06/17 04:10:36;;;;;;;13.77;9.32;;;15.00;99.90;;;;;;5021124;28;20050;-59
2022/06/17 04:13:02;;;;;;;13.27;10.10;;;15.10;99.90;;;;;;5019547;28;20132;-58
2022/06/17 04:15:53;;;;;;;14.32;9.73;;;15.10;99.90;;;;;;5020498;28;20049;-59
2022/06/17 04:18:19;;;;;;;15.02;9.57;;;15.20;99.90;;;;;;5020468;28;20038;-59
2022/06/17 04:20:44;;;;;;;14.63;9.75;;;15.10;99.90;;;;;;5017939;28;20053;-60
2022/06/17 04:23:15;;;;;;;13.30;9.70;;;15.00;99.90;;;;;;5037234;28;20045;-59
2022/06/17 04:25:45;;;;;;;12.40;9.48;;;15.00;99.90;;;;;;5039048;28;20041;-58
2022/06/17 04:28:15;;;;;;;14.45;9.93;;;15.10;99.90;;;;;;5040355;28;20138;-59
2022/06/17 04:30:44;;;;;;;15.02;9.20;;;15.10;99.90;;;;;;5039694;28;20067;-59
2022/06/17 04:33:39;;;;;;;14.85;10.27;;;15.20;99.90;;;;;;5038073;28;20076;-59
2022/06/17 04:36:11;;;;;;;13.45;9.80;;;15.20;99.90;;;;;;5037202;28;20479;-59
2022/06/17 04:38:53;;;;;;;12.70;9.90;;;15.10;99.90;;;;;;5038698;28;20053;-60
2022/06/17 04:41:21;;;;;;;16.75;9.88;;;15.10;99.90;;;;;;5040254;28;20041;-59
2022/06/17 04:43:50;;;;;;;13.82;8.80;;;15.00;99.90;;;;;;5039293;28;20049;-59
2022/06/17 04:46:35;;;;;;;14.48;9.07;;;15.10;99.90;;;;;;5037687;28;20084;-59
2022/06/17 04:49:02;;;;;;;14.40;9.13;;;15.10;99.90;;;;;;5040284;28;20041;-59
2022/06/17 04:51:29;;;;;;;12.25;9.55;;;15.20;99.90;;;;;;5038802;28;20420;-59
2022/06/17 04:53:56;;;;;;;13.23;9.00;;;15.20;99.90;;;;;;5040128;28;20052;-59
2022/06/17 04:56:32;;;;;;;14.70;9.55;;;15.30;99.90;;;;;;5039344;28;20057;-59
2022/06/17 04:58:58;;;;;;;12.20;9.15;;;15.30;99.90;;;;;;5039311;28;20109;-60
2022/06/17 05:01:25;;;;;;;17.15;8.95;;;15.30;99.90;;;;;;5040109;28;20076;-59
2022/06/17 05:03:57;;;;;;;14.00;8.38;;;15.30;99.90;;;;;;5038575;28;20064;-60
2022/06/17 05:06:22;;;;;;;11.43;7.78;;;15.20;99.90;;;;;;5044115;28;20050;-59
2022/06/17 05:09:01;;;;;;;13.23;8.57;;;15.40;99.90;;;;;;5041086;28;20118;-59
2022/06/17 05:11:36;;;;;;;10.82;7.97;;;15.30;99.90;;;;;;5042091;28;20057;-59
2022/06/17 05:14:21;;;;;;;15.05;8.55;;;15.40;99.90;;;;;;5043408;28;20065;-59
2022/06/17 05:16:46;;;;;;;12.85;8.90;;;15.40;99.90;;;;;;5042586;28;20048;-59
2022/06/17 05:19:12;;;;;;;10.55;7.85;;;15.50;99.90;;;;;;5043740;28;20049;-59
2022/06/17 05:21:37;;;;;;;11.43;7.82;;;15.40;99.90;;;;;;5038529;28;20097;-59
2022/06/17 05:24:04;;;;;;;12.43;7.88;;;15.50;99.90;;;;;;5023771;28;20042;-59
2022/06/17 05:26:30;;;;;;;12.35;7.53;;;15.50;99.90;;;;;;5023190;28;20042;-59
2022/06/17 05:28:56;;;;;;;10.93;6.70;;;15.50;99.90;;;;;;5022966;28;20604;-60
2022/06/17 05:31:25;;;;;;;13.35;7.10;;;15.60;99.90;;;;;;5023499;28;20050;-58
2022/06/17 05:33:51;;;;;;;11.77;8.18;;;15.60;99.90;;;;;;5022396;28;20042;-59
2022/06/17 05:36:17;;;;;;;11.68;7.75;;;15.60;99.90;;;;;;5023877;28;20105;-60
2022/06/17 05:38:43;;;;;;;10.70;7.43;;;15.70;99.90;;;;;;5020846;28;20121;-59
2022/06/17 05:41:16;;;;;;;13.70;7.70;;;15.70;99.90;;;;;;5023591;28;20058;-59
2022/06/17 05:43:42;;;;;;;11.23;7.47;;;15.80;99.90;;;;;;5022573;28;20042;-60
2022/06/17 05:46:07;;;;;;;12.40;8.00;;;15.80;99.90;;;;;;5022507;28;20041;-60
2022/06/17 05:48:33;;;;;;;12.00;7.75;;;15.80;99.90;;;;;;5023107;28;20089;-59
2022/06/17 05:50:59;;;;;;;14.57;8.05;;;15.90;99.90;;;;;;5021911;28;20037;-59
2022/06/17 05:53:25;;;;;;;13.80;8.68;;;16.00;99.90;;;;;;5023530;28;20046;-59
2022/06/17 05:55:54;;;;;;;13.27;7.50;;;16.00;99.90;;;;;;5021818;28;20117;-59
2022/06/17 05:58:20;;;;;;;12.70;7.68;;;16.00;99.90;;;;;;5021723;28;20437;-59
2022/06/17 06:00:46;;;;;;;11.25;7.40;;;16.10;99.90;;;;;;5020897;28;20068;-59
2022/06/17 06:03:20;;;;;;;12.23;7.72;;;16.20;99.90;;;;;;5021940;28;20085;-60
2022/06/17 06:05:46;;;;;;;14.13;7.70;;;16.20;99.90;;;;;;5021682;28;20050;-59
2022/06/17 06:08:12;;;;;;;11.07;7.47;;;16.20;99.90;;;;;;5021623;28;20042;-59
2022/06/17 06:10:37;;;;;;;12.90;8.27;;;16.30;99.90;;;;;;5023177;28;20466;-60
2022/06/17 06:13:03;;;;;;;13.98;9.15;;;16.30;99.90;;;;;;5021667;28;20072;-59
2022/06/17 06:15:35;;;;;;;10.60;7.43;;;16.30;99.90;;;;;;5022098;28;20042;-59
2022/06/17 06:18:01;;;;;;;;;;;16.40;99.90;;;;;;5022781;28;20042;-58
2022/06/17 06:20:27;;;;;;;13.32;8.25;;;16.40;99.90;;;;;;5021781;28;19948;-59
2022/06/17 06:22:53;;;;;;;15.23;8.38;;;16.50;99.90;;;;;;5036741;28;20049;-59
2022/06/17 06:25:20;;;;;;;11.43;7.88;;;16.60;99.90;;;;;;5041067;28;21031;-59
2022/06/17 06:27:46;;;;;;;12.00;7.45;;;16.60;99.90;;;;;;5042567;28;20065;-59
2022/06/17 06:30:32;;;;;;;11.50;7.82;;;16.70;99.90;;;;;;5041004;28;20389;-59
2022/06/17 06:33:02;;;;;;;10.80;7.97;;;16.80;99.90;;;;;;5040014;28;20080;-58
2022/06/17 06:35:31;;;;;;;12.30;8.38;;;16.90;99.90;;;;;;5042041;28;20037;-59
2022/06/17 06:37:56;;;;;;;13.48;8.73;;;17.00;99.90;;;;;;5039782;28;20097;-59
2022/06/17 06:40:22;;;;;;;12.75;8.05;;;17.10;99.90;;;;;;5042142;28;20056;-59
2022/06/17 06:42:50;;;;;;;10.88;7.53;;;17.20;99.90;;;;;;5039249;28;20045;-60
2022/06/17 06:45:23;;;;;;;11.55;7.53;;;17.30;99.90;;;;;;5042038;28;20053;-59
2022/06/17 06:47:49;;;;;;;12.52;6.65;;;17.40;99.90;;;;;;5041320;28;20056;-59
2022/06/17 06:50:18;;;;;;;12.68;7.22;;;17.50;99.90;;;;;;5041263;28;20105;-59
2022/06/17 06:52:45;;;;;;;12.32;7.38;;;17.60;99.90;;;;;;5041699;28;20080;-59
2022/06/17 06:55:11;;;;;;;13.07;7.43;;;17.70;99.90;;;;;;5040698;28;20045;-59
2022/06/17 06:57:46;;;;;;;12.38;7.03;;;17.80;99.90;;;;;;5042043;28;20072;-59
2022/06/17 07:00:16;;;;;;;11.60;6.68;;;17.90;99.90;;;;;;5040402;28;20060;-59
2022/06/17 07:02:42;;;;;;;10.45;7.10;;;18.00;99.90;;;;;;5041415;28;20068;-60
2022/06/17 07:05:08;;;;;;;12.40;7.35;;;18.10;99.90;;;;;;5041013;28;20049;-59
2022/06/17 07:07:34;;;;;;;11.52;6.85;;;18.10;99.90;;;;;;5040856;28;20052;-59
2022/06/17 07:10:00;;;;;;;11.57;7.53;;;18.10;99.90;;;;;;5041421;28;20037;-59
2022/06/17 07:12:25;;;;;;;11.25;6.78;;;18.20;99.90;;;;;;5040353;28;20124;-59
2022/06/17 07:14:51;;;;;;;9.43;6.47;;;18.20;99.90;;;;;;5041432;28;20045;-59
2022/06/17 07:17:16;;;;;;;14.18;6.60;;;18.30;99.90;;;;;;5040230;28;20049;-59
2022/06/17 07:19:42;;;;;;;10.15;6.68;;;18.30;99.90;;;;;;5041556;28;20124;-60
2022/06/17 07:22:08;;;;;;;10.25;6.32;;;18.40;99.90;;;;;;5032613;28;20077;-60
2022/06/17 07:24:35;;;;;;;10.20;6.22;;;18.50;99.90;;;;;;5020893;28;20056;-60
2022/06/17 07:27:00;;;;;;;10.05;5.95;;;18.50;99.90;;;;;;5002981;28;20050;-59
2022/06/17 07:29:26;;;;;;;10.30;6.28;;;18.50;99.90;;;;;;5020167;28;20125;-60
2022/06/17 07:31:52;;;;;;;11.63;7.10;;;18.70;99.90;;;;;;5021669;28;20085;-60
2022/06/17 07:34:17;;;;;;;8.98;6.07;;;18.70;99.90;;;;;;5020250;28;20105;-60
2022/06/17 07:42:11;;;;;;;9.82;6.53;;;18.90;99.90;;;;;;5020113;28;20053;-60
2022/06/17 07:44:37;;;;;;;9.82;5.88;;;19.10;99.90;;;;;;5019955;28;20042;-59
2022/06/17 07:47:04;;;;;;;12.85;5.82;;;19.20;99.90;;;;;;5019623;28;20057;-60
2022/06/17 07:49:29;;;;;;;9.95;6.65;;;19.20;99.90;;;;;;5021583;28;20550;-60
2022/06/17 07:51:55;;;;;;;10.95;6.78;;;19.30;99.90;;;;;;5020061;28;20054;-59
2022/06/17 07:54:21;;;;;;;9.48;5.88;;;19.40;99.90;;;;;;5020573;28;20034;-59
2022/06/17 07:56:47;;;;;;;11.68;7.35;;;19.60;99.90;;;;;;5020784;28;20065;-59
2022/06/17 07:59:12;;;;;;;16.13;6.35;;;19.60;99.90;;;;;;5019917;28;20108;-59
2022/06/17 08:01:39;;;;;;;9.93;6.22;;;19.60;99.90;;;;;;5019178;28;20129;-59
2022/06/17 08:04:04;;;;;;;11.48;6.35;;;19.70;99.90;;;;;;5019266;28;20541;-59
2022/06/17 08:06:30;;;;;;;10.20;6.05;;;19.80;99.90;;;;;;5021116;28;20042;-58
2022/06/17 08:08:56;;;;;;;11.23;7.55;;;19.80;99.90;;;;;;5019998;28;20081;-58
2022/06/17 08:11:22;;;;;;;10.68;6.80;;;19.80;99.90;;;;;;5020420;28;20134;-58
2022/06/17 08:13:49;;;;;;;12.55;7.15;;;19.80;99.90;;;;;;5020337;28;20046;-59
2022/06/17 08:16:15;;;;;;;14.05;8.30;;;19.90;99.90;;;;;;5019660;28;20245;-59
2022/06/17 08:18:41;;;;;;;11.43;7.43;;;20.10;99.90;;;;;;5020952;28;20158;-59
2022/06/17 08:21:09;;;;;;;12.27;7.82;;;20.30;99.90;;;;;;5019420;28;20084;-59
2022/06/17 08:23:34;;;;;;;12.10;7.72;;;20.50;99.90;;;;;;5020842;28;20038;-60
2022/06/17 08:26:00;;;;;;;11.95;7.57;;;20.50;99.90;;;;;;5019559;28;20073;-59
2022/06/17 08:28:26;;;;;;;12.77;7.18;;;20.70;99.90;;;;;;5020442;28;20045;-60
2022/06/17 08:30:55;;;;;;;11.48;7.57;;;20.70;99.90;;;;;;5019927;28;20053;-59
2022/06/17 08:33:29;;;;;;;12.00;7.45;;;20.70;99.90;;;;;;5019766;28;20046;-59
2022/06/17 08:36:00;;;;;;;14.30;7.30;;;20.80;99.90;;;;;;5020600;28;20161;-59
2022/06/17 08:38:32;;;;;;;12.82;6.60;;;20.80;99.90;;;;;;5019648;28;20082;-59
2022/06/17 08:40:59;;;;;;;;;;;20.80;99.90;;;;;;5025195;28;20078;-59
2022/06/17 08:43:27;;;;;;;11.98;6.35;;;20.70;99.90;;;;;;5023458;28;19922;-58
2022/06/17 08:45:56;;;;;;;12.50;5.90;;;20.70;99.90;;;;;;5023858;28;20099;-58
2022/06/17 08:48:44;;;;;;;11.13;6.38;;;20.80;99.90;;;;;;5023157;28;20563;-59
2022/06/17 08:51:41;;;;;;;10.68;6.00;;;20.80;99.90;;;;;;5002517;28;20053;-59
2022/06/17 08:54:28;;;;;;;10.52;6.22;;;20.80;99.90;;;;;;5024047;28;20555;-59
2022/06/17 08:57:16;;;;;;;9.60;5.80;;;20.80;99.90;;;;;;5024066;28;20466;-59
2022/06/17 09:00:00;;;;;;;8.93;5.40;;;20.80;99.90;;;;;;5022968;28;20053;-60
2022/06/17 09:02:43;;;;;;;9.18;5.93;;;20.80;99.90;;;;;;5023946;28;20066;-56
2022/06/17 09:05:27;;;;;;;10.23;6.32;;;20.80;99.90;;;;;;5023738;28;20081;-59
2022/06/17 09:08:01;;;;;;;10.55;5.35;;;20.90;99.90;;;;;;5022732;28;20061;-60
2022/06/17 09:10:39;;;;;;;9.43;5.72;;;20.90;99.90;;;;;;5024253;28;20037;-59
2022/06/17 09:13:33;;;;;;;11.38;5.65;;;21.00;99.90;;;;;;5022874;28;20049;-61
2022/06/17 09:16:33;;;;;;;10.48;5.75;;;20.90;99.90;;;;;;5019256;28;20108;-60
2022/06/17 09:19:02;;;;;;;12.63;5.88;;;20.90;99.90;;;;;;5024099;28;20056;-59
2022/06/17 09:21:59;;;;;;;10.38;5.68;;;21.00;99.90;;;;;;5024858;28;20045;-59
2022/06/17 09:24:39;;;;;;;13.65;6.80;;;21.10;99.90;;;;;;5042858;28;20068;-59
2022/06/17 09:27:09;;;;;;;10.75;6.22;;;21.20;99.90;;;;;;5043204;28;20057;-59
2022/06/17 09:29:47;;;;;;;11.60;6.50;;;21.30;99.90;;;;;;5042121;28;20586;-59
2022/06/17 09:32:18;;;;;;;12.25;6.53;;;21.60;99.90;;;;;;5043465;28;20149;-58
2022/06/17 09:35:13;;;;;;;11.48;5.93;;;22.00;99.90;;;;;;5042539;28;20068;-58
2022/06/17 09:37:55;;;;;;;11.13;5.93;;;22.30;99.90;;;;;;5042183;28;20052;-60
2022/06/17 09:40:20;;;;;;;;;;;22.50;99.90;;;;;;5044078;28;20053;-60
2022/06/17 09:43:02;;;;;;;10.23;5.72;;;22.60;99.90;;;;;;5041841;28;19921;-60
2022/06/17 09:45:37;;;;;;;8.23;5.15;;;22.60;99.90;;;;;;5042920;28;20065;-59
2022/06/17 09:48:13;;;;;;;9.60;6.00;;;22.50;99.90;;;;;;5042727;28;20053;-58
2022/06/17 09:51:03;;;;;;;10.20;5.05;;;22.30;99.90;;;;;;5041236;28;20482;-59
2022/06/17 09:53:44;;;;;;;9.10;5.20;;;22.30;99.90;;;;;;5041707;28;20136;-60
2022/06/17 09:56:30;;;;;;;9.77;4.65;;;22.30;99.90;;;;;;5041916;28;20045;-59
2022/06/17 09:59:01;;;;;;;11.77;5.30;;;22.30;99.90;;;;;;5042249;28;20060;-59
2022/06/17 10:01:27;;;;;;;10.90;5.18;;;22.20;99.90;;;;;;5042934;28;20046;-59
2022/06/17 10:03:52;;;;;;;11.38;5.32;;;22.30;99.90;;;;;;5041147;28;20064;-59
2022/06/17 10:06:34;;;;;;;11.05;6.13;;;22.20;99.90;;;;;;5043066;28;20072;-59
2022/06/17 10:09:26;;;;;;;;;;;22.10;99.90;;;;;;5042268;28;20052;-59
2022/06/17 10:12:01;;;;;;;9.55;5.00;;;22.20;99.90;;;;;;5038441;28;19921;-59
2022/06/17 10:15:00;;;;;;;9.85;4.95;;;22.10;99.90;;;;;;5042582;28;20072;-59
2022/06/17 10:21:01;;;;;;;7.70;4.65;;;22.10;99.90;;;;;;5041385;28;20052;-60
2022/06/17 10:23:47;;;;;;;11.23;4.80;;;22.10;99.90;;;;;;5023668;28;20093;-60
2022/06/17 10:26:31;;;;;;;9.25;4.68;;;22.20;99.90;;;;;;5021950;28;20058;-60
2022/06/17 10:29:11;;;;;;;11.23;5.93;;;22.30;99.90;;;;;;5021839;28;20053;-60
2022/06/17 10:31:43;;;;;;;10.98;5.57;;;22.30;99.90;;;;;;5022534;28;20050;-60
2022/06/17 10:34:27;;;;;;;10.38;4.95;;;22.30;99.90;;;;;;5021110;28;20053;-61
2022/06/17 10:36:57;;;;;;;10.13;5.22;;;22.40;99.90;;;;;;5022247;28;20065;-60
2022/06/17 10:39:25;;;;;;;8.82;5.15;;;22.60;99.90;;;;;;5021784;28;20097;-60
2022/06/17 10:41:51;;;;;;;10.77;5.25;;;22.80;99.90;;;;;;5021398;28;20052;-60
2022/06/17 10:44:25;;;;;;;8.30;5.10;;;22.90;99.90;;;;;;5022066;28;20132;-61
2022/06/17 10:47:20;;;;;;;8.70;4.88;;;23.10;99.90;;;;;;5020757;28;20041;-60
2022/06/17 10:49:53;;;;;;;10.77;5.43;;;23.10;99.90;;;;;;5013585;28;20156;-60
2022/06/17 10:52:24;;;;;;;10.75;6.18;;;23.20;99.90;;;;;;5021922;28;20588;-57
2022/06/17 10:54:51;;;;;;;11.20;5.20;;;23.10;99.90;;;;;;5021055;28;20046;-60
2022/06/17 10:57:30;;;;;;;12.68;6.78;;;23.10;99.90;;;;;;5022235;28;20034;-61
2022/06/17 10:59:55;;;;;;;12.77;6.72;;;23.10;99.90;;;;;;5020583;28;20148;-59
2022/06/17 11:02:23;;;;;;;10.43;6.75;;;23.10;99.90;;;;;;5020654;28;20086;-61
2022/06/17 11:04:55;;;;;;;12.18;6.22;;;23.20;99.90;;;;;;5021065;28;20046;-60
2022/06/17 11:07:48;;;;;;;11.68;6.93;;;23.40;99.90;;;;;;5021209;28;20050;-60
2022/06/17 11:10:14;;;;;;;10.98;6.70;;;23.50;99.90;;;;;;5021867;28;20568;-59
2022/06/17 11:12:56;;;;;;;11.82;7.07;;;23.50;99.90;;;;;;5020457;28;20042;-60
2022/06/17 11:15:42;;;;;;;11.20;7.07;;;23.60;99.90;;;;;;5020042;28;20050;-60
2022/06/17 11:18:15;;;;;;;10.85;6.50;;;23.80;99.90;;;;;;5021367;28;20089;-61
2022/06/17 11:20:54;;;;;;;11.70;6.43;;;24.00;99.90;;;;;;5020391;28;20061;-60
2022/06/17 11:23:23;;;;;;;11.73;7.93;;;24.20;99.90;;;;;;5039709;28;20042;-60
2022/06/17 11:25:54;;;;;;;12.77;6.45;;;24.00;99.90;;;;;;5040020;28;20052;-59
2022/06/17 11:28:42;;;;;;;9.00;7.05;;;24.10;99.90;;;;;;5041120;28;20574;-60
2022/06/17 11:31:29;;;;;;;10.30;7.68;;;24.20;99.90;;;;;;5041070;28;20069;-60
2022/06/17 11:34:08;;;;;;;8.93;6.30;;;24.20;99.90;;;;;;5039541;28;20167;-60
2022/06/17 11:36:37;;;;;;;11.23;6.40;;;24.40;99.90;;;;;;5041439;28;20045;-60
2022/06/17 11:39:35;;;;;;;11.07;6.75;;;24.40;99.90;;;;;;5040073;28;20532;-60
2022/06/17 11:42:13;;;;;;;9.35;6.10;;;24.30;99.90;;;;;;5039921;28;20080;-59
2022/06/17 11:44:52;;;;;;;10.43;5.90;;;24.10;99.90;;;;;;5040755;28;20053;-60
2022/06/17 11:47:24;;;;;;;9.82;5.50;;;24.20;99.90;;;;;;5039799;28;20072;-60
2022/06/17 11:49:52;;;;;;;8.98;5.93;;;24.30;99.90;;;;;;5040613;28;20037;-60
2022/06/17 11:52:34;;;;;;;9.45;5.18;;;24.40;99.90;;;;;;5040581;28;20068;-60
2022/06/17 11:55:01;;;;;;;10.48;5.55;;;24.50;99.90;;;;;;5039377;28;20038;-60
2022/06/17 11:57:32;;;;;;;9.95;5.15;;;25.00;99.90;;;;;;5041201;28;20880;-60
2022/06/17 12:00:00;;;;;;;8.85;5.22;;;25.20;99.90;;;;;;5039209;28;20687;-60
2022/06/17 12:02:27;;;;;;;9.75;4.93;;;25.40;99.90;;;;;;5040510;28;20099;-60
2022/06/17 12:05:03;;;;;;;8.73;4.90;;;25.50;99.90;;;;;;5040161;28;20045;-60
2022/06/17 12:07:52;;;;;;;9.38;4.60;;;25.60;99.90;;;;;;5039702;28;20045;-60
2022/06/17 12:10:21;;;;;;;9.10;4.35;;;25.50;99.90;;;;;;5040883;28;20422;-60
2022/06/17 12:12:49;;;;;;;10.32;4.38;;;25.60;99.90;;;;;;5039189;28;20041;-59
2022/06/17 12:15:40;;;;;;;8.98;5.15;;;25.90;99.90;;;;;;5040169;28;20052;-56
2022/06/17 12:18:30;;;;;;;8.55;4.72;;;25.90;99.90;;;;;;5040365;28;20049;-60
2022/06/17 12:21:14;;;;;;;10.88;4.60;;;26.00;99.90;;;;;;5038626;28;20054;-60
2022/06/17 12:24:09;;;;;;;7.40;4.53;;;26.10;99.90;;;;;;5021075;28;20386;-60
2022/06/17 12:27:10;;;;;;;14.75;4.50;;;26.10;99.90;;;;;;5020556;28;20065;-60
2022/06/17 12:29:46;;;;;;;8.00;4.32;;;26.30;99.90;;;;;;5016009;28;20050;-60
2022/06/17 12:32:33;;;;;;;9.05;4.32;;;26.20;99.90;;;;;;5020761;28;20061;-60
2022/06/17 12:35:06;;;;;;;10.82;3.90;;;26.50;99.90;;;;;;5020181;28;20102;-61
2022/06/17 12:37:46;;;;;;;9.75;4.25;;;26.50;99.90;;;;;;5019646;28;20045;-60
2022/06/17 12:40:22;;;;;;;9.50;4.20;;;26.40;99.90;;;;;;5020697;28;20049;-60
2022/06/17 12:43:12;;;;;;;9.90;3.70;;;26.10;99.90;;;;;;5019074;28;20045;-60
2022/06/17 12:46:03;;;;;;;8.27;3.67;;;26.00;99.90;;;;;;5019771;28;20042;-61
2022/06/17 12:48:49;;;;;;;8.48;3.53;;;26.10;99.90;;;;;;5020503;28;20056;-60
2022/06/17 12:54:47;;;;;;;7.32;3.00;;;25.80;99.90;;;;;;5020143;28;20048;-60
2022/06/17 12:57:39;;;;;;;6.13;2.97;;;25.80;99.90;;;;;;5020598;28;20105;-60
2022/06/17 13:00:06;;;;;;;;;;;25.60;99.90;;;;;;5019672;28;20046;-60
2022/06/17 13:03:09;;;;;;;8.93;3.83;;;25.60;99.90;;;;;;5019995;28;19921;-60
2022/06/17 13:05:38;;;;;;;8.38;3.47;;;25.40;99.90;;;;;;5020303;28;20049;-59
2022/06/17 13:08:12;;;;;;;6.65;3.15;;;25.20;99.90;;;;;;5019004;28;20076;-62
2022/06/17 13:10:56;;;;;;;6.28;3.53;;;25.20;99.90;;;;;;5020558;28;20081;-59
2022/06/17 13:13:53;;;;;;;8.02;3.40;;;25.20;99.90;;;;;;5018194;28;20105;-59
2022/06/17 13:16:22;;;;;;;9.48;3.70;;;25.20;99.90;;;;;;5018967;28;20077;-59
2022/06/17 13:19:11;;;;;;;8.95;3.75;;;25.30;99.90;;;;;;5019018;28;20045;-60
2022/06/17 13:21:52;;;;;;;7.55;3.90;;;25.40;99.90;;;;;;5022977;28;20809;-59
2022/06/17 13:24:42;;;;;;;7.10;3.70;;;25.30;99.90;;;;;;5039240;28;20042;-60